createdAt,value
2022-12-25T00:00:00.192Z,19.3
2022-12-25T00:06:19.952Z,19.3
2022-12-25T00:12:42.959Z,7.5
2022-12-25T00:19:03.071Z,7.5
2022-12-25T00:25:25.985Z,6.3
2022-12-25T00:31:46.065Z,6.3
2022-12-25T00:38:08.983Z,2.1
2022-12-25T00:44:28.937Z,2.1
2022-12-25T00:50:52.003Z,6
2022-12-25T00:57:11.976Z,6
2022-12-25T01:03:34.925Z,2.3
2022-12-25T01:09:54.940Z,2.3
2022-12-25T01:16:18.037Z,8.6
2022-12-25T01:22:37.882Z,8.6
2022-12-25T01:29:01.092Z,18.3
2022-12-25T01:35:20.971Z,18.3
2022-12-25T01:41:44.020Z,5.9
2022-12-25T01:48:03.914Z,5.9
2022-12-25T01:54:26.987Z,6.1
2022-12-25T02:00:46.990Z,6.1
2022-12-25T02:07:09.966Z,4.9
2022-12-25T02:13:29.999Z,4.9
2022-12-25T02:19:52.973Z,4.2
2022-12-25T02:26:12.945Z,4.2
2022-12-25T02:32:36.068Z,9
2022-12-25T02:38:55.937Z,9
2022-12-25T02:45:18.987Z,8.5
2022-12-25T02:51:39.040Z,8.5
2022-12-25T02:58:02.025Z,10.4
2022-12-25T03:04:21.987Z,10.4
2022-12-25T03:10:45.049Z,4.4
2022-12-25T03:17:04.984Z,4.4
2022-12-25T03:23:28.071Z,20.3
2022-12-25T03:29:48.057Z,20.3
2022-12-25T03:36:11.039Z,2.4
2022-12-25T03:42:30.926Z,2.4
2022-12-25T03:48:54.014Z,6.1
2022-12-25T03:55:13.913Z,6.1
2022-12-25T04:01:37.056Z,3.8
2022-12-25T04:07:56.974Z,3.8
2022-12-25T04:14:20.116Z,3.2
2022-12-25T04:20:39.953Z,3.2
2022-12-25T04:43:28.836Z,17.1
2022-12-25T04:49:48.912Z,17.1
2022-12-25T04:56:12.237Z,17.7
2022-12-25T05:02:32.215Z,17.7
2022-12-25T05:08:54.964Z,1.9
2022-12-25T05:15:15.013Z,1.9
2022-12-25T05:21:37.915Z,10.6
2022-12-25T05:27:58.053Z,10.6
2022-12-25T05:34:20.953Z,4.7
2022-12-25T05:40:40.942Z,4.7
2022-12-25T05:47:04.001Z,1.5
2022-12-25T05:53:23.942Z,1.5
2022-12-25T05:59:47.024Z,3.1
2022-12-25T06:06:06.928Z,3.1
2022-12-25T06:12:30.023Z,19.5
2022-12-25T06:18:49.990Z,19.5
2022-12-25T06:25:12.931Z,2.6
2022-12-25T06:31:33.048Z,2.6
2022-12-25T06:37:55.939Z,14.3
2022-12-25T06:44:15.948Z,14.3
2022-12-25T06:50:38.930Z,22.6
2022-12-25T06:56:58.965Z,22.6
2022-12-25T07:03:22.052Z,2.7
2022-12-25T07:09:41.917Z,2.7
2022-12-25T07:16:05.053Z,4.2
2022-12-25T07:22:25.031Z,4.2
2022-12-25T07:28:47.972Z,3
2022-12-25T07:35:07.944Z,3
2022-12-25T07:41:30.957Z,9.2
2022-12-25T07:47:52.857Z,9.2
2022-12-25T07:54:14.001Z,2.8
2022-12-25T08:00:33.958Z,2.8
2022-12-25T08:06:56.971Z,9.3
2022-12-25T08:13:17.024Z,9.3
2022-12-25T08:19:40.098Z,3.3
2022-12-25T08:26:04.394Z,3.3
2022-12-25T08:32:22.950Z,5.5
2022-12-25T08:38:42.932Z,5.5
2022-12-25T08:45:05.992Z,9.7
2022-12-25T08:51:25.992Z,9.7
2022-12-25T08:57:48.983Z,5.9
2022-12-25T09:04:08.990Z,5.9
2022-12-25T09:10:32.001Z,3
2022-12-25T09:16:51.982Z,3
2022-12-25T09:23:14.976Z,4
2022-12-25T09:29:35.012Z,4
2022-12-25T09:35:57.978Z,3.4
2022-12-25T09:42:17.977Z,3.4
2022-12-25T10:05:50.929Z,12.6
2022-12-25T10:12:13.937Z,12.6
2022-12-25T10:18:33.935Z,12.6
2022-12-25T10:24:56.968Z,18.7
2022-12-25T10:31:16.987Z,18.7
2022-12-25T10:37:39.983Z,24
2022-12-25T10:43:59.938Z,24
2022-12-25T10:50:23.002Z,6.9
2022-12-25T10:56:43.142Z,6.9
2022-12-25T11:03:06.590Z,31.3
2022-12-25T11:09:26.223Z,31.3
2022-12-25T11:15:49.045Z,27.5
2022-12-25T11:22:09.043Z,27.5
2022-12-25T11:28:31.978Z,4.4
2022-12-25T11:34:51.981Z,4.4
2022-12-25T11:41:14.952Z,5.1
2022-12-25T11:47:34.936Z,5.1
2022-12-25T11:53:57.984Z,13.1
2022-12-25T12:00:18.104Z,13.1
2022-12-25T12:06:40.964Z,5.2
2022-12-25T12:13:00.978Z,5.2
2022-12-25T12:19:24.616Z,6
2022-12-25T12:25:44.958Z,6
2022-12-25T12:32:07.954Z,13.9
2022-12-25T12:38:28.020Z,13.9
2022-12-25T12:44:51.010Z,5.4
2022-12-25T12:51:10.980Z,5.4
2022-12-25T12:57:33.994Z,4.5
2022-12-25T13:03:53.979Z,4.5
2022-12-25T13:10:16.959Z,8.4
2022-12-25T13:16:37.071Z,8.4
2022-12-25T13:22:59.945Z,5.2
2022-12-25T13:29:20.109Z,5.2
2022-12-25T13:35:42.955Z,6.3
2022-12-25T13:42:02.973Z,6.3
2022-12-25T13:48:25.988Z,26.1
2022-12-25T13:54:45.927Z,26.1
2022-12-25T14:01:08.979Z,3.2
2022-12-25T14:07:28.979Z,3.2
2022-12-25T14:13:51.944Z,7.1
2022-12-25T14:20:12.002Z,7.1
2022-12-25T14:26:34.950Z,5.5
2022-12-25T14:32:55.107Z,5.5
2022-12-25T14:39:17.927Z,6.2
2022-12-25T14:45:38.011Z,6.2
2022-12-25T14:52:01.081Z,12.2
2022-12-25T14:58:20.957Z,12.2
2022-12-25T15:04:44.010Z,7.8
2022-12-25T15:21:26.606Z,6.8
2022-12-25T15:27:49.440Z,19.4
2022-12-25T15:34:08.895Z,19.4
2022-12-25T15:40:32.033Z,19.4
2022-12-25T15:46:52.014Z,19.4
2022-12-25T15:53:14.942Z,4.8
2022-12-25T15:59:34.962Z,4.8
2022-12-25T16:05:57.988Z,7
2022-12-25T16:12:18.025Z,7
2022-12-25T16:18:47.039Z,2.3
2022-12-25T16:25:00.924Z,2.3
2022-12-25T16:31:24.073Z,1
2022-12-25T16:37:44.011Z,1
2022-12-25T16:44:06.966Z,7.5
2022-12-25T16:50:26.954Z,7.5
2022-12-25T16:56:49.938Z,19.8
2022-12-25T17:03:10.119Z,19.8
2022-12-25T17:09:33.350Z,4.1
2022-12-25T17:15:53.164Z,4.1
2022-12-25T17:22:15.950Z,3.1
2022-12-25T17:28:35.959Z,3.1
2022-12-25T17:34:58.984Z,9.2
2022-12-25T17:41:18.949Z,9.2
2022-12-25T17:47:41.997Z,12
2022-12-25T17:54:01.943Z,12
2022-12-25T18:00:24.950Z,12.4
2022-12-25T18:06:44.969Z,12.4
2022-12-25T18:13:07.993Z,7
2022-12-25T18:19:27.920Z,7
2022-12-25T18:25:50.972Z,0.9
2022-12-25T18:32:11.028Z,0.9
2022-12-25T18:38:33.984Z,3
2022-12-25T18:44:53.929Z,3
2022-12-25T18:51:17.006Z,6.2
2022-12-25T18:57:36.933Z,6.2
2022-12-25T19:04:04.911Z,16.3
2022-12-25T19:10:19.986Z,16.3
2022-12-25T19:16:43.013Z,12.7
2022-12-25T19:23:02.926Z,12.7
2022-12-25T19:29:26.006Z,4
2022-12-25T19:35:45.919Z,4
2022-12-25T19:42:08.977Z,4.5
2022-12-25T19:48:28.962Z,4.5
2022-12-25T19:54:51.912Z,9.2
2022-12-25T20:01:11.995Z,9.2
2022-12-25T20:07:34.931Z,1.5
2022-12-25T20:13:54.977Z,1.5
2022-12-25T20:20:17.913Z,2.3
2022-12-25T20:26:37.937Z,2.3
2022-12-25T20:33:00.935Z,4.2
2022-12-25T20:48:32.198Z,2.9
2022-12-25T20:54:51.927Z,2.9
2022-12-25T21:01:15.037Z,8.4
2022-12-25T21:07:34.974Z,8.4
2022-12-25T21:13:57.887Z,8.4
2022-12-25T21:20:17.941Z,8.4
2022-12-25T21:26:46.196Z,1.1
2022-12-25T21:33:00.950Z,1.1
2022-12-25T21:39:23.970Z,3.1
2022-12-25T21:45:43.988Z,3.1
2022-12-25T21:52:06.938Z,3.8
2022-12-25T21:58:26.955Z,3.8
2022-12-25T22:04:49.935Z,2.3
2022-12-25T22:11:09.992Z,2.3
2022-12-25T22:17:32.943Z,2.4
2022-12-25T22:23:52.936Z,2.4
2022-12-25T22:30:15.909Z,3.6
2022-12-25T22:36:35.900Z,3.6
2022-12-25T22:42:58.986Z,1.9
2022-12-25T22:49:18.940Z,1.9
2022-12-25T22:55:41.941Z,1.5
2022-12-25T23:02:02.050Z,1.5
2022-12-25T23:24:58.979Z,3
2022-12-25T23:31:18.944Z,3
2022-12-25T23:37:41.957Z,3
2022-12-25T23:44:02.032Z,3
2022-12-25T23:50:24.965Z,0.8
2022-12-25T23:56:44.985Z,0.8
